Time;durP1;ratioP1;P1;durP2;ratioP2;P2;SDS_P1;SDS_P2;PMS_P1;PMS_P2;Temp;Humidity;BMP_temperature;BMP_pressure;BME280_temperature;BME280_humidity;BME280_pressure;Samples;Min_cycle;Max_cycle;Signal;HPM_P1;HPM_P2
2021/12/27 00:01:21;;;;;;;25.63;18.65;;;;;;;;;;4891880;29;20478;-81
2021/12/27 00:03:49;;;;;;;26.45;18.10;;;;;;;;;;4889597;29;20430;-80
2021/12/27 00:06:15;;;;;;;25.73;17.35;;;;;;;;;;4888675;29;20588;-81
2021/12/27 00:08:43;;;;;;;24.73;17.13;;;;;;;;;;4926974;29;20519;-81
2021/12/27 00:11:09;;;;;;;26.90;18.45;;;;;;;;;;4912680;29;20433;-80
2021/12/27 00:13:35;;;;;;;25.88;18.23;;;;;;;;;;4912398;29;20433;-80
2021/12/27 00:16:02;;;;;;;24.10;17.27;;;;;;;;;;4912543;29;20514;-80
2021/12/27 00:18:28;;;;;;;25.35;18.50;;;;;;;;;;4893372;29;20439;-81
2021/12/27 00:20:54;;;;;;;26.10;18.75;;;;;;;;;;4905906;29;20431;-80
2021/12/27 00:23:20;;;;;;;25.63;17.92;;;;;;;;;;4900782;29;20799;-80
2021/12/27 00:25:47;;;;;;;26.50;19.25;;;;;;;;;;4902890;29;20439;-81
2021/12/27 00:28:13;;;;;;;27.05;18.42;;;;;;;;;;4892010;29;20439;-80
2021/12/27 00:30:39;;;;;;;26.63;18.83;;;;;;;;;;4927144;29;20463;-80
2021/12/27 00:33:05;;;;;;;26.45;18.75;;;;;;;;;;4914773;29;20501;-80
2021/12/27 00:35:32;;;;;;;26.60;18.02;;;;;;;;;;4894573;29;20435;-80
2021/12/27 00:37:59;;;;;;;27.67;18.23;;;;;;;;;;4885892;29;20504;-80
2021/12/27 00:40:25;;;;;;;26.90;18.90;;;;;;;;;;4893911;29;20481;-80
2021/12/27 00:42:51;;;;;;;26.77;18.88;;;;;;;;;;4885648;29;20753;-80
2021/12/27 00:45:18;;;;;;;27.40;18.83;;;;;;;;;;4913281;29;20435;-80
2021/12/27 00:47:44;;;;;;;28.52;19.02;;;;;;;;;;4909549;29;20446;-81
2021/12/27 00:50:11;;;;;;;29.63;18.67;;;;;;;;;;4889296;29;20476;-80
2021/12/27 00:52:38;;;;;;;27.52;18.40;;;;;;;;;;4893370;29;20511;-80
2021/12/27 00:55:08;;;;;;;28.42;19.20;;;;;;;;;;4906448;29;20521;-80
2021/12/27 00:57:34;;;;;;;28.58;19.73;;;;;;;;;;4911810;29;20427;-80
2021/12/27 01:00:01;;;;;;;26.17;18.70;;;;;;;;;;4873681;29;20432;-80
2021/12/27 01:02:27;;;;;;;26.17;19.02;;;;;;;;;;4909205;29;20427;-76
2021/12/27 01:04:53;;;;;;;26.55;19.02;;;;;;;;;;4906851;29;20459;-76
2021/12/27 01:07:19;;;;;;;27.30;19.25;;;;;;;;;;4912101;29;20438;-76
2021/12/27 01:12:29;;;;;;;27.73;19.55;;;;;;;;;;4923409;29;20510;-77
2021/12/27 01:15:09;;;;;;;27.27;18.67;;;;;;;;;;4923135;29;20434;-77
2021/12/27 01:17:39;;;;;;;31.05;19.85;;;;;;;;;;4884178;29;20923;-77
2021/12/27 01:20:08;;;;;;;28.13;19.67;;;;;;;;;;4908865;29;20463;-77
2021/12/27 01:22:34;;;;;;;28.55;19.15;;;;;;;;;;4915274;29;20477;-76
2021/12/27 01:25:00;;;;;;;28.65;19.58;;;;;;;;;;4901755;29;20937;-77
2021/12/27 01:27:27;;;;;;;31.25;20.00;;;;;;;;;;4897416;29;20520;-77
2021/12/27 01:29:53;;;;;;;31.35;20.40;;;;;;;;;;4879031;29;20504;-77
2021/12/27 01:32:20;;;;;;;27.60;19.15;;;;;;;;;;4880462;29;20431;-77
2021/12/27 01:34:46;;;;;;;27.27;19.15;;;;;;;;;;4911658;29;20448;-77
2021/12/27 01:37:12;;;;;;;27.55;19.48;;;;;;;;;;4926789;29;20478;-77
2021/12/27 01:39:38;;;;;;;29.52;20.50;;;;;;;;;;4894441;29;20511;-77
2021/12/27 01:42:05;;;;;;;28.27;19.60;;;;;;;;;;4894259;29;20462;-77
2021/12/27 01:44:31;;;;;;;27.83;19.65;;;;;;;;;;4880772;29;20434;-81
2021/12/27 01:46:57;;;;;;;28.98;19.75;;;;;;;;;;4910346;29;20444;-81
2021/12/27 01:49:23;;;;;;;51.60;22.33;;;;;;;;;;4888705;29;20438;-81
2021/12/27 01:51:50;;;;;;;30.10;20.13;;;;;;;;;;4917488;29;20518;-81
2021/12/27 01:54:16;;;;;;;30.15;19.77;;;;;;;;;;4902296;29;20444;-81
2021/12/27 01:56:42;;;;;;;32.05;20.17;;;;;;;;;;4891048;29;20437;-80
2021/12/27 01:59:08;;;;;;;32.00;20.48;;;;;;;;;;4900094;29;20435;-81
2021/12/27 02:01:34;;;;;;;28.60;19.17;;;;;;;;;;4908402;29;20423;-80
2021/12/27 02:04:00;;;;;;;28.95;20.75;;;;;;;;;;4880121;29;20432;-80
2021/12/27 02:06:26;;;;;;;30.02;20.65;;;;;;;;;;4897635;29;20761;-80
2021/12/27 02:08:53;;;;;;;29.58;20.40;;;;;;;;;;4885053;29;20800;-81
2021/12/27 02:11:20;;;;;;;31.65;21.23;;;;;;;;;;4905025;29;20438;-80
2021/12/27 02:13:47;;;;;;;29.58;20.98;;;;;;;;;;4914061;29;20431;-80
2021/12/27 02:16:22;;;;;;;30.50;20.90;;;;;;;;;;4912411;29;20530;-80
2021/12/27 02:18:48;;;;;;;32.33;22.13;;;;;;;;;;4901255;29;20505;-80
2021/12/27 02:21:15;;;;;;;30.30;21.35;;;;;;;;;;4885941;29;20423;-81
2021/12/27 02:23:42;;;;;;;29.40;21.00;;;;;;;;;;4891446;29;20427;-80
2021/12/27 02:26:09;;;;;;;29.13;20.80;;;;;;;;;;4880681;29;20519;-80
2021/12/27 02:28:36;;;;;;;30.63;21.60;;;;;;;;;;4907623;29;20578;-81
2021/12/27 02:31:03;;;;;;;30.55;21.27;;;;;;;;;;4908422;29;20771;-80
2021/12/27 02:33:30;;;;;;;32.40;20.75;;;;;;;;;;4904410;29;20510;-79
2021/12/27 02:35:57;;;;;;;29.03;21.20;;;;;;;;;;4899895;29;20454;-80
2021/12/27 02:38:27;;;;;;;28.88;20.35;;;;;;;;;;4895758;29;21732;-81
2021/12/27 02:40:55;;;;;;;28.50;21.00;;;;;;;;;;4883163;29;20500;-80
2021/12/27 02:43:22;;;;;;;29.42;21.33;;;;;;;;;;4905085;29;20431;-80
2021/12/27 02:45:56;;;;;;;29.30;20.85;;;;;;;;;;4909003;29;20858;-80
2021/12/27 02:48:23;;;;;;;29.00;21.30;;;;;;;;;;4907226;29;20514;-80
2021/12/27 02:50:50;;;;;;;31.42;21.58;;;;;;;;;;4907935;29;20453;-81
2021/12/27 02:53:16;;;;;;;31.83;21.65;;;;;;;;;;4889308;29;20472;-80
2021/12/27 02:55:42;;;;;;;29.85;20.25;;;;;;;;;;4911120;29;20935;-80
2021/12/27 02:58:08;;;;;;;31.17;21.52;;;;;;;;;;4891024;29;20443;-80
2021/12/27 03:00:46;;;;;;;30.35;21.23;;;;;;;;;;4927569;29;20427;-80
2021/12/27 03:03:12;;;;;;;30.05;21.70;;;;;;;;;;4913276;29;20423;-80
2021/12/27 03:05:38;;;;;;;31.35;21.75;;;;;;;;;;4887671;29;20431;-80
2021/12/27 03:08:04;;;;;;;31.77;21.13;;;;;;;;;;4905800;29;20842;-80
2021/12/27 03:10:33;;;;;;;30.65;20.95;;;;;;;;;;4915396;29;20518;-81
2021/12/27 03:13:00;;;;;;;30.00;21.17;;;;;;;;;;4894349;29;20852;-80
2021/12/27 03:15:26;;;;;;;29.75;21.08;;;;;;;;;;4894874;29;20866;-80
2021/12/27 03:17:53;;;;;;;28.90;21.13;;;;;;;;;;4883820;29;20919;-81
2021/12/27 03:20:20;;;;;;;30.38;22.02;;;;;;;;;;4896909;29;20795;-81
2021/12/27 03:22:46;;;;;;;35.45;23.13;;;;;;;;;;4913927;29;20431;-81
2021/12/27 03:25:14;;;;;;;29.40;20.97;;;;;;;;;;4902513;29;21049;-81
2021/12/27 03:27:41;;;;;;;32.45;21.58;;;;;;;;;;4921540;29;20852;-81
2021/12/27 03:30:08;;;;;;;30.17;22.10;;;;;;;;;;4902954;29;20425;-81
2021/12/27 03:32:36;;;;;;;32.22;22.23;;;;;;;;;;4887522;29;20452;-82
2021/12/27 03:35:09;;;;;;;30.10;21.95;;;;;;;;;;4879484;29;20479;-81
2021/12/27 03:37:35;;;;;;;32.28;21.92;;;;;;;;;;4908676;29;20452;-81
2021/12/27 03:40:01;;;;;;;31.13;21.73;;;;;;;;;;4904849;29;20502;-80
2021/12/27 03:42:27;;;;;;;29.73;22.53;;;;;;;;;;4895730;29;20449;-80
2021/12/27 03:44:53;;;;;;;31.80;22.25;;;;;;;;;;4894190;29;20430;-80
2021/12/27 03:47:20;;;;;;;31.15;22.23;;;;;;;;;;4905069;29;20505;-80
2021/12/27 03:49:46;;;;;;;32.90;22.30;;;;;;;;;;4885797;29;20466;-80
2021/12/27 03:52:12;;;;;;;31.02;21.58;;;;;;;;;;4875286;29;20539;-80
2021/12/27 03:54:38;;;;;;;31.35;22.35;;;;;;;;;;4880479;29;20939;-80
2021/12/27 03:57:04;;;;;;;32.47;23.42;;;;;;;;;;4883946;29;20454;-80
2021/12/27 04:02:12;;;;;;;33.47;23.03;;;;;;;;;;4894929;29;20842;-80
2021/12/27 04:04:38;;;;;;;33.88;24.30;;;;;;;;;;4885753;29;20423;-80
2021/12/27 04:07:07;;;;;;;35.25;24.60;;;;;;;;;;4901695;29;20435;-80
2021/12/27 04:09:33;;;;;;;37.83;26.33;;;;;;;;;;4908052;29;20443;-80
2021/12/27 04:11:59;;;;;;;37.70;25.58;;;;;;;;;;4899791;29;20435;-80
2021/12/27 04:14:28;;;;;;;38.42;26.55;;;;;;;;;;4900088;29;20465;-80
2021/12/27 04:16:54;;;;;;;42.33;28.40;;;;;;;;;;4889702;29;20525;-80
2021/12/27 04:19:20;;;;;;;40.08;28.00;;;;;;;;;;4885721;29;20434;-79
2021/12/27 04:21:46;;;;;;;41.22;28.40;;;;;;;;;;4910384;29;20924;-79
2021/12/27 04:24:13;;;;;;;41.30;28.20;;;;;;;;;;4904595;29;20430;-79
2021/12/27 04:26:39;;;;;;;40.20;26.85;;;;;;;;;;4904477;29;20434;-79
2021/12/27 04:29:06;;;;;;;40.85;27.40;;;;;;;;;;4914351;29;21057;-79
2021/12/27 04:31:32;;;;;;;42.05;28.92;;;;;;;;;;4899378;29;20462;-79
2021/12/27 04:33:58;;;;;;;42.00;27.90;;;;;;;;;;4896062;29;20938;-80
2021/12/27 04:36:24;;;;;;;41.28;28.45;;;;;;;;;;4913580;29;21009;-79
2021/12/27 04:38:50;;;;;;;39.42;27.58;;;;;;;;;;4891405;29;20514;-81
2021/12/27 04:41:19;;;;;;;44.13;28.37;;;;;;;;;;4892997;29;20544;-80
2021/12/27 04:43:45;;;;;;;40.40;27.90;;;;;;;;;;4899076;29;20709;-79
2021/12/27 04:46:11;;;;;;;40.17;27.67;;;;;;;;;;4904648;29;20509;-80
2021/12/27 04:48:37;;;;;;;41.33;27.77;;;;;;;;;;4899852;29;20438;-79
2021/12/27 04:51:03;;;;;;;39.07;28.53;;;;;;;;;;4905406;29;20952;-79
2021/12/27 04:53:29;;;;;;;42.63;28.90;;;;;;;;;;4905731;29;20460;-79
2021/12/27 04:55:55;;;;;;;41.28;28.50;;;;;;;;;;4917276;29;20473;-80
2021/12/27 04:58:22;;;;;;;43.05;30.02;;;;;;;;;;4886678;29;20435;-79
2021/12/27 05:00:49;;;;;;;46.38;30.10;;;;;;;;;;4911726;29;20438;-79
2021/12/27 05:03:15;;;;;;;65.95;32.47;;;;;;;;;;4911838;29;20935;-79
2021/12/27 05:05:44;;;;;;;45.63;32.05;;;;;;;;;;4908727;29;20467;-80
2021/12/27 05:08:10;;;;;;;45.25;30.73;;;;;;;;;;4911663;29;20495;-79
2021/12/27 05:10:36;;;;;;;44.97;29.73;;;;;;;;;;4899266;29;20516;-79
2021/12/27 05:13:02;;;;;;;46.00;31.10;;;;;;;;;;4910965;29;20447;-80
2021/12/27 05:15:29;;;;;;;52.65;31.17;;;;;;;;;;4909351;29;20450;-78
2021/12/27 05:17:55;;;;;;;46.33;29.48;;;;;;;;;;4879865;29;20487;-79
2021/12/27 05:20:21;;;;;;;45.65;30.52;;;;;;;;;;4899337;29;20469;-78
2021/12/27 05:22:47;;;;;;;50.85;32.28;;;;;;;;;;4913925;29;20471;-80
2021/12/27 05:25:16;;;;;;;82.60;36.00;;;;;;;;;;4881960;29;20432;-80
2021/12/27 05:27:42;;;;;;;49.92;34.80;;;;;;;;;;4905085;29;20435;-80
2021/12/27 05:30:09;;;;;;;50.38;35.97;;;;;;;;;;4900890;29;20461;-80
2021/12/27 05:32:38;;;;;;;57.05;35.53;;;;;;;;;;4910177;29;20472;-79
2021/12/27 05:35:04;;;;;;;57.85;36.60;;;;;;;;;;4898300;29;20439;-80
2021/12/27 05:37:31;;;;;;;266.85;53.55;;;;;;;;;;4886492;29;20464;-80
2021/12/27 05:40:03;;;;;;;65.63;36.65;;;;;;;;;;4890079;29;20954;-79
2021/12/27 05:42:29;;;;;;;60.92;37.42;;;;;;;;;;4908324;29;20427;-80
2021/12/27 05:44:55;;;;;;;64.57;39.10;;;;;;;;;;4894766;29;20780;-79
2021/12/27 05:47:21;;;;;;;145.00;46.45;;;;;;;;;;4897908;29;20522;-79
2021/12/27 05:49:47;;;;;;;66.25;40.45;;;;;;;;;;4910175;29;20452;-79
2021/12/27 05:52:13;;;;;;;73.55;39.63;;;;;;;;;;4899736;29;20427;-80
2021/12/27 05:54:40;;;;;;;79.72;41.60;;;;;;;;;;4907917;29;20433;-80
2021/12/27 05:57:06;;;;;;;149.57;46.83;;;;;;;;;;4880228;29;20452;-80
2021/12/27 05:59:32;;;;;;;116.80;42.83;;;;;;;;;;4909687;29;20792;-79
2021/12/27 06:01:58;;;;;;;173.77;47.22;;;;;;;;;;4899965;29;20435;-80
2021/12/27 06:04:24;;;;;;;314.67;59.05;;;;;;;;;;4901468;29;20443;-79
2021/12/27 06:06:50;;;;;;;170.45;48.03;;;;;;;;;;4896846;29;20436;-80
2021/12/27 06:09:16;;;;;;;122.45;45.03;;;;;;;;;;4890873;29;20439;-79
2021/12/27 06:11:43;;;;;;;356.90;63.80;;;;;;;;;;4898592;29;20438;-79
2021/12/27 06:14:09;;;;;;;182.98;52.35;;;;;;;;;;4911603;29;20439;-79
2021/12/27 06:16:35;;;;;;;246.07;55.88;;;;;;;;;;4879794;29;20438;-79
2021/12/27 06:19:01;;;;;;;514.47;79.93;;;;;;;;;;4910187;29;20445;-78
2021/12/27 06:21:27;;;;;;;399.83;71.13;;;;;;;;;;4908620;29;20427;-78
2021/12/27 06:23:53;;;;;;;236.43;52.33;;;;;;;;;;4931021;29;20514;-76
2021/12/27 06:26:19;;;;;;;254.43;54.92;;;;;;;;;;4906940;29;20518;-75
2021/12/27 06:28:45;;;;;;;181.68;48.28;;;;;;;;;;4881772;29;20447;-76
2021/12/27 06:31:11;;;;;;;77.45;40.97;;;;;;;;;;4909958;29;20439;-76
2021/12/27 06:33:37;;;;;;;369.15;65.82;;;;;;;;;;4906313;29;20435;-76
2021/12/27 06:36:04;;;;;;;481.10;80.78;;;;;;;;;;4907095;29;20478;-77
2021/12/27 06:38:30;;;;;;;285.60;54.95;;;;;;;;;;4902987;29;20963;-77
2021/12/27 06:40:58;;;;;;;142.00;44.95;;;;;;;;;;4909659;29;20498;-77
2021/12/27 06:43:24;;;;;;;129.43;44.57;;;;;;;;;;4905100;29;20502;-77
2021/12/27 06:45:50;;;;;;;82.15;39.22;;;;;;;;;;4910382;29;20427;-77
2021/12/27 06:48:16;;;;;;;245.70;51.22;;;;;;;;;;4904572;29;20815;-76
2021/12/27 06:50:43;;;;;;;135.48;44.78;;;;;;;;;;4907755;29;20649;-77
2021/12/27 06:53:09;;;;;;;160.20;44.10;;;;;;;;;;4908975;29;20435;-77
2021/12/27 06:55:35;;;;;;;242.13;54.22;;;;;;;;;;4871177;29;21001;-77
2021/12/27 06:58:01;;;;;;;70.07;38.47;;;;;;;;;;4908214;29;20450;-77
2021/12/27 07:00:27;;;;;;;107.65;41.65;;;;;;;;;;4904318;29;20437;-77
2021/12/27 07:02:54;;;;;;;106.15;42.55;;;;;;;;;;4907666;29;20434;-77
2021/12/27 07:05:20;;;;;;;170.18;46.55;;;;;;;;;;4895153;29;20431;-77
2021/12/27 07:07:46;;;;;;;184.27;48.45;;;;;;;;;;4889910;29;20789;-77
2021/12/27 07:10:14;;;;;;;109.72;43.35;;;;;;;;;;4913553;29;20431;-77
2021/12/27 07:12:40;;;;;;;120.85;46.92;;;;;;;;;;4907369;29;20435;-77
2021/12/27 07:15:07;;;;;;;101.47;47.25;;;;;;;;;;4916431;29;20435;-77
2021/12/27 07:17:33;;;;;;;105.13;49.25;;;;;;;;;;4890473;29;20501;-77
2021/12/27 07:19:59;;;;;;;226.85;59.13;;;;;;;;;;4913086;29;20435;-77
2021/12/27 07:22:26;;;;;;;367.67;73.50;;;;;;;;;;4921873;29;20427;-78
2021/12/27 07:24:52;;;;;;;116.65;54.63;;;;;;;;;;4904562;29;20432;-78
2021/12/27 07:27:18;;;;;;;124.15;55.05;;;;;;;;;;4895653;29;20500;-77
2021/12/27 07:29:44;;;;;;;178.93;59.55;;;;;;;;;;4906542;29;20431;-78
2021/12/27 07:32:10;;;;;;;152.40;56.70;;;;;;;;;;4891270;29;20444;-79
2021/12/27 07:34:36;;;;;;;707.97;101.03;;;;;;;;;;4902434;29;20582;-78
2021/12/27 07:37:02;;;;;;;122.63;53.63;;;;;;;;;;4906950;29;20447;-79
2021/12/27 07:39:28;;;;;;;192.93;56.60;;;;;;;;;;4905972;29;20429;-79
2021/12/27 07:41:55;;;;;;;248.57;64.22;;;;;;;;;;4881383;29;20438;-79
2021/12/27 07:44:21;;;;;;;174.27;56.75;;;;;;;;;;4909837;29;20435;-79
2021/12/27 07:46:47;;;;;;;129.52;53.03;;;;;;;;;;4902069;29;20435;-79
2021/12/27 07:49:15;;;;;;;123.97;54.22;;;;;;;;;;4904119;29;20544;-79
2021/12/27 07:51:41;;;;;;;255.45;62.35;;;;;;;;;;4900199;29;20522;-76
2021/12/27 07:54:08;;;;;;;239.88;64.93;;;;;;;;;;4892482;29;20439;-79
2021/12/27 07:56:34;;;;;;;163.73;57.53;;;;;;;;;;4903139;29;20932;-80
2021/12/27 07:59:03;;;;;;;266.88;65.68;;;;;;;;;;4899890;29;20927;-79
2021/12/27 08:01:33;;;;;;;216.38;64.20;;;;;;;;;;4901082;29;20427;-79
2021/12/27 08:04:00;;;;;;;527.80;90.38;;;;;;;;;;4913198;29;20437;-78
2021/12/27 08:06:26;;;;;;;529.63;92.55;;;;;;;;;;4898548;29;20438;-78
2021/12/27 08:08:52;;;;;;;191.35;62.55;;;;;;;;;;4921024;29;20434;-79
2021/12/27 08:11:18;;;;;;;257.20;75.20;;;;;;;;;;4902941;29;20873;-75
2021/12/27 08:13:44;;;;;;;378.70;79.53;;;;;;;;;;4914763;29;20760;-76
2021/12/27 08:16:11;;;;;;;218.63;68.97;;;;;;;;;;4896744;29;20791;-77
2021/12/27 08:18:37;;;;;;;249.77;71.87;;;;;;;;;;4895619;29;20432;-79
2021/12/27 08:21:04;;;;;;;421.00;88.63;;;;;;;;;;4913643;29;20514;-79
2021/12/27 08:23:30;;;;;;;338.33;83.80;;;;;;;;;;4899811;29;20435;-79
2021/12/27 08:25:56;;;;;;;404.08;88.60;;;;;;;;;;4903513;29;20489;-78
2021/12/27 08:28:22;;;;;;;295.33;82.53;;;;;;;;;;4915433;29;20534;-79
2021/12/27 08:30:48;;;;;;;658.97;118.30;;;;;;;;;;4911158;29;20458;-79
2021/12/27 08:33:14;;;;;;;431.75;89.03;;;;;;;;;;4895232;29;20522;-79
2021/12/27 08:35:40;;;;;;;1308.15;178.52;;;;;;;;;;4901461;29;20520;-79
2021/12/27 08:38:07;;;;;;;343.13;86.32;;;;;;;;;;4873016;29;20529;-79
2021/12/27 08:40:33;;;;;;;381.63;91.30;;;;;;;;;;4915831;29;20935;-79
2021/12/27 08:43:02;;;;;;;525.30;104.75;;;;;;;;;;4913988;29;20461;-79
2021/12/27 08:45:28;;;;;;;596.88;114.72;;;;;;;;;;4921386;29;20486;-79
2021/12/27 08:47:54;;;;;;;384.07;87.30;;;;;;;;;;4899884;29;20466;-79
2021/12/27 08:50:20;;;;;;;362.63;95.15;;;;;;;;;;4899471;29;20470;-79
2021/12/27 08:52:47;;;;;;;661.75;121.50;;;;;;;;;;4890072;29;20440;-79
2021/12/27 08:55:14;;;;;;;428.93;99.93;;;;;;;;;;4901366;29;20490;-79
2021/12/27 08:57:41;;;;;;;390.52;93.40;;;;;;;;;;4893925;29;20467;-78
2021/12/27 09:00:08;;;;;;;537.50;109.10;;;;;;;;;;4899763;29;20435;-79
2021/12/27 09:02:34;;;;;;;631.05;122.47;;;;;;;;;;4881962;29;20433;-78
2021/12/27 09:05:01;;;;;;;1666.85;228.30;;;;;;;;;;4885888;29;20956;-78
2021/12/27 09:07:27;;;;;;;377.27;96.25;;;;;;;;;;4920595;29;20534;-78
2021/12/27 09:09:53;;;;;;;363.60;89.75;;;;;;;;;;4903952;29;20444;-77
2021/12/27 09:12:19;;;;;;;692.27;129.43;;;;;;;;;;4888429;29;20929;-76
2021/12/27 09:14:45;;;;;;;1114.35;171.02;;;;;;;;;;4896381;29;20447;-76
2021/12/27 09:17:11;;;;;;;345.98;91.63;;;;;;;;;;4906225;29;20435;-77
2021/12/27 09:19:38;;;;;;;305.63;86.80;;;;;;;;;;4881084;29;20919;-77
2021/12/27 09:22:04;;;;;;;352.45;92.05;;;;;;;;;;4877385;29;20430;-77
2021/12/27 09:24:31;;;;;;;873.20;139.43;;;;;;;;;;4890039;29;22177;-77
2021/12/27 09:26:58;;;;;;;293.38;83.63;;;;;;;;;;4907510;29;20791;-77
2021/12/27 09:29:24;;;;;;;241.57;79.55;;;;;;;;;;4890863;29;20442;-77
2021/12/27 09:31:50;;;;;;;297.17;79.97;;;;;;;;;;4879165;29;20939;-77
2021/12/27 09:34:16;;;;;;;684.15;113.07;;;;;;;;;;4878228;29;20521;-77
2021/12/27 09:36:43;;;;;;;271.63;80.40;;;;;;;;;;4910532;29;21022;-77
2021/12/27 09:39:09;;;;;;;244.10;77.72;;;;;;;;;;4903598;29;20549;-79
2021/12/27 09:41:35;;;;;;;322.15;81.70;;;;;;;;;;4905809;29;20438;-78
2021/12/27 09:44:02;;;;;;;751.53;118.40;;;;;;;;;;4898111;29;20442;-79
2021/12/27 09:46:29;;;;;;;326.73;80.28;;;;;;;;;;4902678;29;20435;-78
2021/12/27 09:48:56;;;;;;;573.00;105.38;;;;;;;;;;4906597;29;20524;-76
2021/12/27 09:51:22;;;;;;;252.48;71.60;;;;;;;;;;4881534;29;20441;-76
2021/12/27 09:53:49;;;;;;;594.60;103.37;;;;;;;;;;4885485;29;20552;-75
2021/12/27 09:56:15;;;;;;;279.13;76.00;;;;;;;;;;4888812;29;20532;-76
2021/12/27 09:58:41;;;;;;;454.30;91.72;;;;;;;;;;4904506;29;20466;-76
2021/12/27 10:01:07;;;;;;;308.02;79.57;;;;;;;;;;4893655;29;20433;-76
2021/12/27 10:03:50;;;;;;;386.45;86.90;;;;;;;;;;4879728;29;20442;-76
2021/12/27 10:06:16;;;;;;;416.88;90.82;;;;;;;;;;4893174;29;20443;-77
2021/12/27 10:08:47;;;;;;;589.20;105.40;;;;;;;;;;4905012;29;20446;-77
2021/12/27 10:11:17;;;;;;;422.95;93.70;;;;;;;;;;4891113;29;20474;-77
2021/12/27 10:14:02;;;;;;;837.55;131.35;;;;;;;;;;4908403;29;20446;-77
2021/12/27 10:16:29;;;;;;;641.92;115.45;;;;;;;;;;4899398;29;20460;-78
2021/12/27 10:18:56;;;;;;;609.17;111.43;;;;;;;;;;4908502;29;20443;-78
2021/12/27 10:21:22;;;;;;;482.20;101.47;;;;;;;;;;4891232;29;20446;-78
2021/12/27 10:23:48;;;;;;;554.20;110.60;;;;;;;;;;4886094;29;20510;-78
2021/12/27 10:26:18;;;;;;;570.08;116.97;;;;;;;;;;4885276;29;20823;-81
2021/12/27 10:28:44;;;;;;;628.58;115.25;;;;;;;;;;4900604;29;20439;-81
2021/12/27 10:31:10;;;;;;;736.35;129.88;;;;;;;;;;4907272;29;20846;-78
2021/12/27 10:33:36;;;;;;;595.20;118.75;;;;;;;;;;4898079;29;20486;-79
2021/12/27 10:36:03;;;;;;;644.10;120.07;;;;;;;;;;4877495;29;20502;-78
2021/12/27 10:38:36;;;;;;;655.47;119.65;;;;;;;;;;4895727;29;20826;-79
2021/12/27 10:41:03;;;;;;;563.07;119.30;;;;;;;;;;4906534;29;20458;-81
2021/12/27 10:43:40;;;;;;;621.53;121.22;;;;;;;;;;4900736;29;20495;-78
2021/12/27 10:46:07;;;;;;;572.25;110.60;;;;;;;;;;4882989;29;20427;-77
2021/12/27 10:48:34;;;;;;;561.07;112.53;;;;;;;;;;4883746;29;20502;-77
2021/12/27 10:51:00;;;;;;;554.55;107.18;;;;;;;;;;4906815;29;20473;-77
2021/12/27 10:53:26;;;;;;;547.05;110.43;;;;;;;;;;4897540;29;20437;-77
2021/12/27 10:55:54;;;;;;;608.63;115.00;;;;;;;;;;4896380;29;20439;-77
2021/12/27 10:58:27;;;;;;;610.70;110.90;;;;;;;;;;4904339;29;20415;-76
2021/12/27 11:00:58;;;;;;;874.90;145.17;;;;;;;;;;4901818;29;20526;-77
2021/12/27 11:03:27;;;;;;;540.83;105.03;;;;;;;;;;4896948;29;20516;-77
2021/12/27 11:05:53;;;;;;;591.42;113.30;;;;;;;;;;4904671;29;20431;-77
2021/12/27 11:08:20;;;;;;;784.83;136.30;;;;;;;;;;4906935;29;20436;-80
2021/12/27 11:10:46;;;;;;;827.42;129.10;;;;;;;;;;4895202;29;20453;-79
2021/12/27 11:13:12;;;;;;;884.72;141.65;;;;;;;;;;4880182;29;20443;-77
2021/12/27 11:15:40;;;;;;;544.88;106.60;;;;;;;;;;4878595;29;20504;-80
2021/12/27 11:18:07;;;;;;;561.78;104.03;;;;;;;;;;4919990;29;20556;-81
2021/12/27 11:20:33;;;;;;;581.80;110.10;;;;;;;;;;4886068;29;20449;-78
2021/12/27 11:23:00;;;;;;;1342.13;187.35;;;;;;;;;;4895987;29;20435;-77
2021/12/27 11:25:28;;;;;;;651.55;122.50;;;;;;;;;;4898075;29;20427;-77
2021/12/27 11:27:54;;;;;;;575.72;109.88;;;;;;;;;;4895799;29;20546;-77
2021/12/27 11:30:23;;;;;;;1024.40;159.65;;;;;;;;;;4883694;29;21089;-80
2021/12/27 11:33:12;;;;;;;1095.53;174.95;;;;;;;;;;4884411;29;20445;-81
2021/12/27 11:35:50;;;;;;;523.65;102.75;;;;;;;;;;4882454;29;20939;-82
2021/12/27 11:38:47;;;;;;;577.38;110.20;;;;;;;;;;4892679;29;20520;-81
2021/12/27 11:41:32;;;;;;;1138.35;167.57;;;;;;;;;;4875783;29;20548;-81
2021/12/27 11:44:03;;;;;;;829.47;129.10;;;;;;;;;;4890721;29;20435;-81
2021/12/27 11:46:31;;;;;;;795.25;124.55;;;;;;;;;;4895220;29;20451;-81
2021/12/27 11:48:59;;;;;;;494.70;96.97;;;;;;;;;;4883550;29;20439;-81
2021/12/27 11:51:30;;;;;;;568.45;99.15;;;;;;;;;;4903338;29;20605;-81
2021/12/27 11:53:57;;;;;;;871.42;136.73;;;;;;;;;;4874132;29;20443;-80
2021/12/27 11:56:39;;;;;;;553.15;98.50;;;;;;;;;;4902641;29;21014;-76
2021/12/27 11:59:35;;;;;;;540.15;102.72;;;;;;;;;;4901808;29;20496;-77
2021/12/27 12:02:16;;;;;;;575.65;106.97;;;;;;;;;;4879700;29;20844;-77
2021/12/27 12:04:44;;;;;;;648.95;112.57;;;;;;;;;;4899301;29;20787;-77
2021/12/27 12:07:11;;;;;;;565.33;105.50;;;;;;;;;;4869701;29;20445;-78
2021/12/27 12:09:45;;;;;;;557.10;108.05;;;;;;;;;;4871153;29;20434;-77
2021/12/27 12:12:13;;;;;;;573.03;108.82;;;;;;;;;;4900271;29;20526;-78
2021/12/27 12:14:39;;;;;;;706.57;121.43;;;;;;;;;;4904709;29;20615;-77
2021/12/27 12:17:07;;;;;;;572.45;105.10;;;;;;;;;;4892829;29;20771;-78
2021/12/27 12:19:54;;;;;;;571.22;107.13;;;;;;;;;;4893429;29;20488;-78
2021/12/27 12:22:40;;;;;;;593.57;109.87;;;;;;;;;;4884946;29;20446;-78
2021/12/27 12:25:10;;;;;;;580.50;105.50;;;;;;;;;;4920974;29;20492;-78
2021/12/27 12:27:36;;;;;;;630.72;108.60;;;;;;;;;;4897210;29;20439;-78
2021/12/27 12:30:03;;;;;;;579.22;102.47;;;;;;;;;;4900752;29;20434;-81
2021/12/27 12:32:29;;;;;;;570.95;100.47;;;;;;;;;;4886427;29;20528;-81
2021/12/27 12:34:55;;;;;;;791.95;123.25;;;;;;;;;;4891914;29;20470;-81
2021/12/27 12:37:21;;;;;;;619.40;101.47;;;;;;;;;;4903425;29;20442;-80
2021/12/27 12:39:49;;;;;;;603.95;105.07;;;;;;;;;;4896892;29;20863;-81
2021/12/27 12:42:21;;;;;;;614.05;106.90;;;;;;;;;;4890353;29;20970;-81
2021/12/27 12:44:47;;;;;;;796.50;133.50;;;;;;;;;;4885644;29;20510;-81
2021/12/27 12:47:13;;;;;;;884.35;145.00;;;;;;;;;;4889197;29;20853;-81
2021/12/27 12:49:39;;;;;;;775.58;126.68;;;;;;;;;;4883549;29;20482;-82
2021/12/27 12:52:06;;;;;;;571.40;103.50;;;;;;;;;;4881957;29;20440;-82
2021/12/27 12:54:34;;;;;;;574.20;102.85;;;;;;;;;;4872611;29;20441;-76
2021/12/27 12:57:06;;;;;;;841.10;141.98;;;;;;;;;;4905573;29;20921;-77
2021/12/27 12:59:37;;;;;;;649.55;115.10;;;;;;;;;;4887913;29;20437;-77
2021/12/27 13:02:06;;;;;;;862.05;144.55;;;;;;;;;;4903742;29;21408;-78
2021/12/27 13:04:41;;;;;;;526.30;101.68;;;;;;;;;;4899768;29;20435;-78
2021/12/27 13:07:08;;;;;;;806.17;135.65;;;;;;;;;;4886357;29;20443;-78
2021/12/27 13:09:43;;;;;;;1081.47;167.73;;;;;;;;;;4895467;29;20439;-76
2021/12/27 13:12:10;;;;;;;1856.97;259.80;;;;;;;;;;4894837;29;20426;-78
2021/12/27 13:14:36;;;;;;;534.80;115.93;;;;;;;;;;4896581;29;20929;-78
2021/12/27 13:17:14;;;;;;;554.60;105.50;;;;;;;;;;4908938;29;20502;-78
2021/12/27 13:19:59;;;;;;;542.40;108.73;;;;;;;;;;4901365;29;20470;-79
2021/12/27 13:22:40;;;;;;;808.97;133.52;;;;;;;;;;4899986;29;20471;-79
2021/12/27 13:25:06;;;;;;;472.07;101.40;;;;;;;;;;4901666;29;21071;-77
2021/12/27 13:27:33;;;;;;;1112.07;203.70;;;;;;;;;;4878199;29;20813;-78
2021/12/27 13:30:06;;;;;;;521.30;105.43;;;;;;;;;;4927271;29;20430;-77
2021/12/27 13:32:32;;;;;;;526.40;104.18;;;;;;;;;;4917365;29;20961;-78
2021/12/27 13:34:58;;;;;;;576.13;105.07;;;;;;;;;;4906697;29;20495;-78
2021/12/27 13:37:24;;;;;;;510.38;99.45;;;;;;;;;;4876266;29;20950;-78
2021/12/27 13:39:50;;;;;;;620.50;113.50;;;;;;;;;;4917775;29;20437;-79
2021/12/27 13:42:16;;;;;;;1189.80;173.00;;;;;;;;;;4874957;29;20460;-79
2021/12/27 13:44:42;;;;;;;511.08;100.70;;;;;;;;;;4889177;29;20454;-79
2021/12/27 13:47:11;;;;;;;481.02;96.78;;;;;;;;;;4878355;29;20446;-78
2021/12/27 13:49:38;;;;;;;720.58;124.07;;;;;;;;;;4910583;29;20428;-78
2021/12/27 13:52:17;;;;;;;1389.50;189.18;;;;;;;;;;4901203;29;20505;-78
2021/12/27 13:54:52;;;;;;;508.20;98.40;;;;;;;;;;4885499;29;20484;-78
2021/12/27 13:57:19;;;;;;;560.30;105.63;;;;;;;;;;4912762;29;20523;-78
2021/12/27 13:59:48;;;;;;;777.53;135.70;;;;;;;;;;4891422;29;20439;-78
2021/12/27 14:02:15;;;;;;;717.85;124.88;;;;;;;;;;4889559;29;20440;-77
2021/12/27 14:04:41;;;;;;;559.60;108.18;;;;;;;;;;4899068;29;20969;-78
2021/12/27 14:07:09;;;;;;;567.45;111.63;;;;;;;;;;4892720;29;21204;-78
2021/12/27 14:09:36;;;;;;;572.28;106.05;;;;;;;;;;4911342;29;20434;-78
2021/12/27 14:12:04;;;;;;;921.83;143.13;;;;;;;;;;4921809;29;20506;-79
2021/12/27 14:14:33;;;;;;;598.17;111.53;;;;;;;;;;4898458;29;20469;-79